sensor_id;sensor_type;location;lat;lon;timestamp;P1;durP1;ratioP1;P2;durP2;ratioP2
10122;SDS011;5101;49.038;8.710;2022-07-29T00:01:46;4.68;;;2.78;;
10122;SDS011;5101;49.038;8.710;2022-07-29T00:04:12;3.25;;;2.95;;
10122;SDS011;5101;49.038;8.710;2022-07-29T00:06:37;2.90;;;2.70;;
10122;SDS011;5101;49.038;8.710;2022-07-29T00:09:03;4.20;;;2.80;;
10122;SDS011;5101;49.038;8.710;2022-07-29T00:11:29;7.50;;;2.50;;
10122;SDS011;5101;49.038;8.710;2022-07-29T00:13:54;3.72;;;3.00;;
10122;SDS011;5101;49.038;8.710;2022-07-29T00:16:20;3.30;;;3.03;;
10122;SDS011;5101;49.038;8.710;2022-07-29T00:18:45;2.78;;;2.58;;
10122;SDS011;5101;49.038;8.710;2022-07-29T00:21:11;3.03;;;2.70;;
10122;SDS011;5101;49.038;8.710;2022-07-29T00:23:36;3.25;;;2.92;;
10122;SDS011;5101;49.038;8.710;2022-07-29T00:26:02;3.50;;;2.60;;
10122;SDS011;5101;49.038;8.710;2022-07-29T00:28:27;3.42;;;2.78;;
10122;SDS011;5101;49.038;8.710;2022-07-29T00:30:53;4.05;;;2.53;;
10122;SDS011;5101;49.038;8.710;2022-07-29T00:33:19;3.58;;;2.70;;
10122;SDS011;5101;49.038;8.710;2022-07-29T00:35:44;2.95;;;2.75;;
10122;SDS011;5101;49.038;8.710;2022-07-29T00:38:13;3.50;;;2.63;;
10122;SDS011;5101;49.038;8.710;2022-07-29T00:40:41;2.95;;;2.60;;
10122;SDS011;5101;49.038;8.710;2022-07-29T00:43:07;3.05;;;2.75;;
10122;SDS011;5101;49.038;8.710;2022-07-29T00:45:33;2.55;;;2.35;;
10122;SDS011;5101;49.038;8.710;2022-07-29T00:47:59;2.90;;;2.70;;
10122;SDS011;5101;49.038;8.710;2022-07-29T00:50:24;2.75;;;2.55;;
10122;SDS011;5101;49.038;8.710;2022-07-29T00:52:50;4.57;;;2.75;;
10122;SDS011;5101;49.038;8.710;2022-07-29T00:55:16;2.95;;;2.58;;
10122;SDS011;5101;49.038;8.710;2022-07-29T00:57:42;2.60;;;2.40;;
10122;SDS011;5101;49.038;8.710;2022-07-29T01:00:10;3.17;;;2.88;;
10122;SDS011;5101;49.038;8.710;2022-07-29T01:02:38;2.97;;;2.67;;
10122;SDS011;5101;49.038;8.710;2022-07-29T01:05:04;4.18;;;2.55;;
10122;SDS011;5101;49.038;8.710;2022-07-29T01:07:32;3.22;;;2.60;;
10122;SDS011;5101;49.038;8.710;2022-07-29T01:09:59;4.78;;;2.83;;
10122;SDS011;5101;49.038;8.710;2022-07-29T01:12:27;2.50;;;2.30;;
10122;SDS011;5101;49.038;8.710;2022-07-29T01:14:57;2.97;;;2.60;;
10122;SDS011;5101;49.038;8.710;2022-07-29T01:17:25;3.90;;;2.47;;
10122;SDS011;5101;49.038;8.710;2022-07-29T01:20:00;3.55;;;2.70;;
10122;SDS011;5101;49.038;8.710;2022-07-29T01:25:05;2.70;;;2.50;;
10122;SDS011;5101;49.038;8.710;2022-07-29T01:30:24;3.17;;;2.72;;
10122;SDS011;5101;49.038;8.710;2022-07-29T01:32:51;3.33;;;2.70;;
10122;SDS011;5101;49.038;8.710;2022-07-29T01:35:25;3.38;;;2.67;;
10122;SDS011;5101;49.038;8.710;2022-07-29T01:40:41;3.35;;;2.70;;
10122;SDS011;5101;49.038;8.710;2022-07-29T01:43:12;2.65;;;2.47;;
10122;SDS011;5101;49.038;8.710;2022-07-29T01:45:47;3.30;;;3.00;;
10122;SDS011;5101;49.038;8.710;2022-07-29T01:48:17;2.92;;;2.55;;
10122;SDS011;5101;49.038;8.710;2022-07-29T01:50:50;3.70;;;2.97;;
10122;SDS011;5101;49.038;8.710;2022-07-29T01:53:44;3.05;;;2.35;;
10122;SDS011;5101;49.038;8.710;2022-07-29T01:56:29;3.03;;;2.83;;
10122;SDS011;5101;49.038;8.710;2022-07-29T01:58:58;4.35;;;2.42;;
10122;SDS011;5101;49.038;8.710;2022-07-29T02:01:25;3.03;;;2.67;;
10122;SDS011;5101;49.038;8.710;2022-07-29T02:03:52;4.90;;;2.72;;
10122;SDS011;5101;49.038;8.710;2022-07-29T02:06:20;3.58;;;2.53;;
10122;SDS011;5101;49.038;8.710;2022-07-29T02:08:47;2.92;;;2.60;;
10122;SDS011;5101;49.038;8.710;2022-07-29T02:11:14;3.05;;;2.72;;
10122;SDS011;5101;49.038;8.710;2022-07-29T02:13:40;5.95;;;2.83;;
10122;SDS011;5101;49.038;8.710;2022-07-29T02:16:08;3.75;;;2.92;;
10122;SDS011;5101;49.038;8.710;2022-07-29T02:18:35;3.70;;;2.80;;
10122;SDS011;5101;49.038;8.710;2022-07-29T02:21:02;3.67;;;2.83;;
10122;SDS011;5101;49.038;8.710;2022-07-29T02:23:28;5.45;;;2.60;;
10122;SDS011;5101;49.038;8.710;2022-07-29T02:25:56;2.78;;;2.58;;
10122;SDS011;5101;49.038;8.710;2022-07-29T02:28:24;2.90;;;2.70;;
10122;SDS011;5101;49.038;8.710;2022-07-29T02:30:52;3.10;;;2.80;;
10122;SDS011;5101;49.038;8.710;2022-07-29T02:33:19;2.97;;;2.67;;
10122;SDS011;5101;49.038;8.710;2022-07-29T02:35:47;4.60;;;2.80;;
10122;SDS011;5101;49.038;8.710;2022-07-29T02:38:14;4.10;;;3.10;;
10122;SDS011;5101;49.038;8.710;2022-07-29T02:41:01;3.78;;;2.70;;
10122;SDS011;5101;49.038;8.710;2022-07-29T02:43:30;3.13;;;2.97;;
10122;SDS011;5101;49.038;8.710;2022-07-29T02:45:58;3.03;;;2.63;;
10122;SDS011;5101;49.038;8.710;2022-07-29T02:48:30;4.18;;;2.90;;
10122;SDS011;5101;49.038;8.710;2022-07-29T02:51:03;4.93;;;2.88;;
10122;SDS011;5101;49.038;8.710;2022-07-29T02:53:33;2.95;;;2.70;;
10122;SDS011;5101;49.038;8.710;2022-07-29T02:56:02;3.72;;;3.10;;
10122;SDS011;5101;49.038;8.710;2022-07-29T02:58:40;3.15;;;2.90;;
10122;SDS011;5101;49.038;8.710;2022-07-29T03:01:14;4.65;;;2.65;;
10122;SDS011;5101;49.038;8.710;2022-07-29T03:03:44;3.10;;;2.90;;
10122;SDS011;5101;49.038;8.710;2022-07-29T03:06:11;3.10;;;2.80;;
10122;SDS011;5101;49.038;8.710;2022-07-29T03:08:39;4.40;;;2.92;;
10122;SDS011;5101;49.038;8.710;2022-07-29T03:11:05;3.63;;;2.72;;
10122;SDS011;5101;49.038;8.710;2022-07-29T03:13:34;3.58;;;3.28;;
10122;SDS011;5101;49.038;8.710;2022-07-29T03:16:00;3.30;;;3.00;;
10122;SDS011;5101;49.038;8.710;2022-07-29T03:18:27;3.38;;;3.00;;
10122;SDS011;5101;49.038;8.710;2022-07-29T03:20:53;4.55;;;3.33;;
10122;SDS011;5101;49.038;8.710;2022-07-29T03:23:19;2.60;;;2.40;;
10122;SDS011;5101;49.038;8.710;2022-07-29T03:25:52;3.40;;;3.20;;
10122;SDS011;5101;49.038;8.710;2022-07-29T03:28:17;3.95;;;3.17;;
10122;SDS011;5101;49.038;8.710;2022-07-29T03:30:43;3.25;;;3.00;;
10122;SDS011;5101;49.038;8.710;2022-07-29T03:33:09;3.25;;;2.75;;
10122;SDS011;5101;49.038;8.710;2022-07-29T03:35:34;3.45;;;2.85;;
10122;SDS011;5101;49.038;8.710;2022-07-29T03:38:00;3.40;;;3.03;;
10122;SDS011;5101;49.038;8.710;2022-07-29T03:40:27;3.80;;;3.50;;
10122;SDS011;5101;49.038;8.710;2022-07-29T03:43:16;3.30;;;2.65;;
10122;SDS011;5101;49.038;8.710;2022-07-29T03:45:44;4.43;;;3.42;;
10122;SDS011;5101;49.038;8.710;2022-07-29T03:48:14;3.30;;;3.00;;
10122;SDS011;5101;49.038;8.710;2022-07-29T03:50:42;2.95;;;2.75;;
10122;SDS011;5101;49.038;8.710;2022-07-29T03:53:08;3.40;;;3.10;;
10122;SDS011;5101;49.038;8.710;2022-07-29T03:55:36;3.78;;;3.05;;
10122;SDS011;5101;49.038;8.710;2022-07-29T03:58:06;3.33;;;3.10;;
10122;SDS011;5101;49.038;8.710;2022-07-29T04:00:33;3.63;;;3.30;;
10122;SDS011;5101;49.038;8.710;2022-07-29T04:03:00;3.70;;;3.40;;
10122;SDS011;5101;49.038;8.710;2022-07-29T04:05:28;3.90;;;3.60;;
10122;SDS011;5101;49.038;8.710;2022-07-29T04:07:53;3.28;;;2.97;;
10122;SDS011;5101;49.038;8.710;2022-07-29T04:10:19;3.13;;;2.83;;
10122;SDS011;5101;49.038;8.710;2022-07-29T04:12:45;3.53;;;3.20;;
10122;SDS011;5101;49.038;8.710;2022-07-29T04:15:10;6.03;;;3.22;;
10122;SDS011;5101;49.038;8.710;2022-07-29T04:17:36;3.53;;;3.22;;
10122;SDS011;5101;49.038;8.710;2022-07-29T04:20:02;4.95;;;3.70;;
10122;SDS011;5101;49.038;8.710;2022-07-29T04:22:28;4.00;;;3.25;;
10122;SDS011;5101;49.038;8.710;2022-07-29T04:24:53;4.90;;;3.40;;
10122;SDS011;5101;49.038;8.710;2022-07-29T04:27:19;4.78;;;2.78;;
10122;SDS011;5101;49.038;8.710;2022-07-29T04:29:44;3.72;;;3.20;;
10122;SDS011;5101;49.038;8.710;2022-07-29T04:32:10;3.28;;;2.72;;
10122;SDS011;5101;49.038;8.710;2022-07-29T04:34:35;2.92;;;2.72;;
10122;SDS011;5101;49.038;8.710;2022-07-29T04:37:01;3.95;;;3.10;;
10122;SDS011;5101;49.038;8.710;2022-07-29T04:39:26;3.30;;;3.00;;
10122;SDS011;5101;49.038;8.710;2022-07-29T04:41:52;3.17;;;2.90;;
10122;SDS011;5101;49.038;8.710;2022-07-29T04:44:17;3.08;;;2.75;;
10122;SDS011;5101;49.038;8.710;2022-07-29T04:46:43;4.65;;;3.25;;
10122;SDS011;5101;49.038;8.710;2022-07-29T04:49:09;4.88;;;3.00;;
10122;SDS011;5101;49.038;8.710;2022-07-29T04:51:34;3.20;;;2.90;;
10122;SDS011;5101;49.038;8.710;2022-07-29T04:54:00;3.42;;;3.13;;
10122;SDS011;5101;49.038;8.710;2022-07-29T04:56:26;3.58;;;3.28;;
10122;SDS011;5101;49.038;8.710;2022-07-29T04:58:52;3.58;;;3.28;;
10122;SDS011;5101;49.038;8.710;2022-07-29T05:01:17;2.97;;;2.78;;
10122;SDS011;5101;49.038;8.710;2022-07-29T05:03:43;3.30;;;2.80;;
10122;SDS011;5101;49.038;8.710;2022-07-29T05:06:10;3.35;;;3.05;;
10122;SDS011;5101;49.038;8.710;2022-07-29T05:08:35;3.58;;;3.10;;
10122;SDS011;5101;49.038;8.710;2022-07-29T05:11:01;2.90;;;2.70;;
10122;SDS011;5101;49.038;8.710;2022-07-29T05:13:26;4.68;;;3.10;;
10122;SDS011;5101;49.038;8.710;2022-07-29T05:15:52;3.17;;;2.88;;
10122;SDS011;5101;49.038;8.710;2022-07-29T05:18:18;7.07;;;5.35;;
10122;SDS011;5101;49.038;8.710;2022-07-29T05:20:43;11.65;;;6.43;;
10122;SDS011;5101;49.038;8.710;2022-07-29T05:23:09;6.40;;;5.70;;
10122;SDS011;5101;49.038;8.710;2022-07-29T05:25:37;6.80;;;5.63;;
10122;SDS011;5101;49.038;8.710;2022-07-29T05:28:03;6.65;;;5.90;;
10122;SDS011;5101;49.038;8.710;2022-07-29T05:30:28;6.32;;;5.45;;
10122;SDS011;5101;49.038;8.710;2022-07-29T05:32:54;6.28;;;5.43;;
10122;SDS011;5101;49.038;8.710;2022-07-29T05:35:19;8.93;;;5.53;;
10122;SDS011;5101;49.038;8.710;2022-07-29T05:37:45;13.18;;;5.25;;
10122;SDS011;5101;49.038;8.710;2022-07-29T05:40:11;5.75;;;5.10;;
10122;SDS011;5101;49.038;8.710;2022-07-29T05:42:36;5.30;;;4.80;;
10122;SDS011;5101;49.038;8.710;2022-07-29T05:45:02;7.32;;;4.28;;
10122;SDS011;5101;49.038;8.710;2022-07-29T05:47:28;5.05;;;4.57;;
10122;SDS011;5101;49.038;8.710;2022-07-29T05:49:53;9.68;;;5.75;;
10122;SDS011;5101;49.038;8.710;2022-07-29T05:52:19;9.18;;;5.57;;
10122;SDS011;5101;49.038;8.710;2022-07-29T05:54:45;5.15;;;4.65;;
10122;SDS011;5101;49.038;8.710;2022-07-29T05:57:17;4.43;;;4.03;;
10122;SDS011;5101;49.038;8.710;2022-07-29T05:59:44;4.25;;;3.85;;
10122;SDS011;5101;49.038;8.710;2022-07-29T06:02:09;6.03;;;4.22;;
10122;SDS011;5101;49.038;8.710;2022-07-29T06:04:35;6.25;;;3.58;;
10122;SDS011;5101;49.038;8.710;2022-07-29T06:07:00;8.48;;;3.67;;
10122;SDS011;5101;49.038;8.710;2022-07-29T06:09:26;4.45;;;3.60;;
10122;SDS011;5101;49.038;8.710;2022-07-29T06:11:52;9.50;;;3.15;;
10122;SDS011;5101;49.038;8.710;2022-07-29T06:14:17;5.70;;;3.60;;
10122;SDS011;5101;49.038;8.710;2022-07-29T06:16:43;5.40;;;3.53;;
10122;SDS011;5101;49.038;8.710;2022-07-29T06:19:09;4.03;;;3.65;;
10122;SDS011;5101;49.038;8.710;2022-07-29T06:21:35;4.13;;;2.97;;
10122;SDS011;5101;49.038;8.710;2022-07-29T06:24:00;4.68;;;3.10;;
10122;SDS011;5101;49.038;8.710;2022-07-29T06:26:26;6.25;;;3.22;;
10122;SDS011;5101;49.038;8.710;2022-07-29T06:28:52;5.68;;;3.33;;
10122;SDS011;5101;49.038;8.710;2022-07-29T06:31:17;4.30;;;3.00;;
10122;SDS011;5101;49.038;8.710;2022-07-29T06:33:43;6.55;;;3.17;;
10122;SDS011;5101;49.038;8.710;2022-07-29T06:36:08;5.75;;;3.00;;
10122;SDS011;5101;49.038;8.710;2022-07-29T06:38:34;8.60;;;2.75;;
10122;SDS011;5101;49.038;8.710;2022-07-29T06:41:00;18.48;;;3.65;;
10122;SDS011;5101;49.038;8.710;2022-07-29T06:43:33;4.30;;;3.13;;
10122;SDS011;5101;49.038;8.710;2022-07-29T06:46:03;3.28;;;3.00;;
10122;SDS011;5101;49.038;8.710;2022-07-29T06:48:30;3.50;;;3.10;;
10122;SDS011;5101;49.038;8.710;2022-07-29T06:50:57;4.55;;;3.13;;
10122;SDS011;5101;49.038;8.710;2022-07-29T06:53:23;3.80;;;3.47;;
10122;SDS011;5101;49.038;8.710;2022-07-29T06:55:48;3.80;;;2.92;;
10122;SDS011;5101;49.038;8.710;2022-07-29T06:58:14;4.93;;;3.40;;
10122;SDS011;5101;49.038;8.710;2022-07-29T07:00:42;4.07;;;2.75;;
10122;SDS011;5101;49.038;8.710;2022-07-29T07:03:09;4.78;;;3.10;;
10122;SDS011;5101;49.038;8.710;2022-07-29T07:05:34;4.22;;;3.10;;
10122;SDS011;5101;49.038;8.710;2022-07-29T07:08:00;5.97;;;2.88;;
10122;SDS011;5101;49.038;8.710;2022-07-29T07:10:25;3.38;;;2.83;;
10122;SDS011;5101;49.038;8.710;2022-07-29T07:12:51;4.40;;;2.60;;
10122;SDS011;5101;49.038;8.710;2022-07-29T07:15:17;5.78;;;2.70;;
10122;SDS011;5101;49.038;8.710;2022-07-29T07:17:46;7.45;;;2.92;;
10122;SDS011;5101;49.038;8.710;2022-07-29T07:20:13;5.90;;;2.63;;
10122;SDS011;5101;49.038;8.710;2022-07-29T07:22:39;4.47;;;2.50;;
10122;SDS011;5101;49.038;8.710;2022-07-29T07:25:04;4.45;;;2.53;;
10122;SDS011;5101;49.038;8.710;2022-07-29T07:27:30;3.28;;;2.35;;
10122;SDS011;5101;49.038;8.710;2022-07-29T07:29:55;3.35;;;2.40;;
10122;SDS011;5101;49.038;8.710;2022-07-29T07:32:21;3.55;;;2.30;;
10122;SDS011;5101;49.038;8.710;2022-07-29T07:34:47;6.03;;;2.50;;
10122;SDS011;5101;49.038;8.710;2022-07-29T07:37:12;3.08;;;2.50;;
10122;SDS011;5101;49.038;8.710;2022-07-29T07:39:39;6.60;;;2.47;;
10122;SDS011;5101;49.038;8.710;2022-07-29T07:42:05;7.68;;;2.85;;
10122;SDS011;5101;49.038;8.710;2022-07-29T07:44:30;4.32;;;2.50;;
10122;SDS011;5101;49.038;8.710;2022-07-29T07:46:56;3.72;;;2.40;;
10122;SDS011;5101;49.038;8.710;2022-07-29T07:49:21;6.50;;;2.42;;
10122;SDS011;5101;49.038;8.710;2022-07-29T07:51:47;2.53;;;2.30;;
10122;SDS011;5101;49.038;8.710;2022-07-29T07:54:12;4.90;;;2.65;;
10122;SDS011;5101;49.038;8.710;2022-07-29T07:56:38;5.97;;;2.65;;
10122;SDS011;5101;49.038;8.710;2022-07-29T07:59:03;6.93;;;3.00;;
10122;SDS011;5101;49.038;8.710;2022-07-29T08:01:29;7.05;;;2.33;;
10122;SDS011;5101;49.038;8.710;2022-07-29T08:03:54;4.25;;;2.50;;
10122;SDS011;5101;49.038;8.710;2022-07-29T08:06:20;7.28;;;2.47;;
10122;SDS011;5101;49.038;8.710;2022-07-29T08:08:45;5.20;;;2.92;;
10122;SDS011;5101;49.038;8.710;2022-07-29T08:11:11;3.72;;;2.38;;
10122;SDS011;5101;49.038;8.710;2022-07-29T08:13:37;3.92;;;2.42;;
10122;SDS011;5101;49.038;8.710;2022-07-29T08:16:03;3.80;;;2.30;;
10122;SDS011;5101;49.038;8.710;2022-07-29T08:18:38;6.15;;;2.50;;
10122;SDS011;5101;49.038;8.710;2022-07-29T08:21:04;5.70;;;2.67;;
10122;SDS011;5101;49.038;8.710;2022-07-29T08:23:30;3.88;;;2.30;;
10122;SDS011;5101;49.038;8.710;2022-07-29T08:26:03;7.07;;;2.40;;
10122;SDS011;5101;49.038;8.710;2022-07-29T08:28:30;6.53;;;2.50;;
10122;SDS011;5101;49.038;8.710;2022-07-29T08:30:55;9.68;;;2.55;;
10122;SDS011;5101;49.038;8.710;2022-07-29T08:33:21;6.45;;;2.60;;
10122;SDS011;5101;49.038;8.710;2022-07-29T08:35:46;5.97;;;2.47;;
10122;SDS011;5101;49.038;8.710;2022-07-29T08:38:12;6.50;;;2.55;;
10122;SDS011;5101;49.038;8.710;2022-07-29T08:40:37;3.72;;;2.40;;
10122;SDS011;5101;49.038;8.710;2022-07-29T08:43:07;5.85;;;2.20;;
10122;SDS011;5101;49.038;8.710;2022-07-29T08:45:44;3.97;;;2.22;;
10122;SDS011;5101;49.038;8.710;2022-07-29T08:48:11;7.55;;;2.65;;
10122;SDS011;5101;49.038;8.710;2022-07-29T08:50:38;2.70;;;2.30;;
10122;SDS011;5101;49.038;8.710;2022-07-29T08:53:06;2.67;;;2.30;;
10122;SDS011;5101;49.038;8.710;2022-07-29T08:55:35;4.88;;;2.58;;
10122;SDS011;5101;49.038;8.710;2022-07-29T08:58:03;5.03;;;2.60;;
10122;SDS011;5101;49.038;8.710;2022-07-29T09:00:30;6.35;;;2.17;;
10122;SDS011;5101;49.038;8.710;2022-07-29T09:02:57;4.30;;;2.00;;
10122;SDS011;5101;49.038;8.710;2022-07-29T09:05:24;6.38;;;2.10;;
10122;SDS011;5101;49.038;8.710;2022-07-29T09:07:51;5.05;;;2.10;;
10122;SDS011;5101;49.038;8.710;2022-07-29T09:10:17;6.43;;;2.00;;
10122;SDS011;5101;49.038;8.710;2022-07-29T09:12:43;4.30;;;2.08;;
10122;SDS011;5101;49.038;8.710;2022-07-29T09:15:09;3.03;;;2.35;;
10122;SDS011;5101;49.038;8.710;2022-07-29T09:20:14;4.93;;;2.33;;
10122;SDS011;5101;49.038;8.710;2022-07-29T09:22:41;3.55;;;2.10;;
10122;SDS011;5101;49.038;8.710;2022-07-29T09:25:07;4.78;;;2.13;;
10122;SDS011;5101;49.038;8.710;2022-07-29T09:27:33;5.57;;;2.20;;
10122;SDS011;5101;49.038;8.710;2022-07-29T09:30:03;5.97;;;2.10;;
10122;SDS011;5101;49.038;8.710;2022-07-29T09:32:30;3.42;;;2.00;;
10122;SDS011;5101;49.038;8.710;2022-07-29T09:37:45;4.45;;;1.65;;
10122;SDS011;5101;49.038;8.710;2022-07-29T09:40:15;10.27;;;2.08;;
10122;SDS011;5101;49.038;8.710;2022-07-29T09:42:49;3.10;;;2.00;;
10122;SDS011;5101;49.038;8.710;2022-07-29T09:45:26;2.45;;;1.88;;
10122;SDS011;5101;49.038;8.710;2022-07-29T09:47:55;5.25;;;1.85;;
10122;SDS011;5101;49.038;8.710;2022-07-29T09:50:40;7.00;;;1.80;;
10122;SDS011;5101;49.038;8.710;2022-07-29T09:53:08;3.92;;;1.75;;
10122;SDS011;5101;49.038;8.710;2022-07-29T09:55:47;4.82;;;1.65;;
10122;SDS011;5101;49.038;8.710;2022-07-29T09:58:20;3.60;;;1.90;;
10122;SDS011;5101;49.038;8.710;2022-07-29T10:00:46;6.32;;;1.80;;
10122;SDS011;5101;49.038;8.710;2022-07-29T10:03:13;3.33;;;1.90;;
10122;SDS011;5101;49.038;8.710;2022-07-29T10:05:40;2.08;;;1.88;;
10122;SDS011;5101;49.038;8.710;2022-07-29T10:08:07;3.30;;;1.90;;
10122;SDS011;5101;49.038;8.710;2022-07-29T10:10:34;6.05;;;1.92;;
10122;SDS011;5101;49.038;8.710;2022-07-29T10:13:05;8.80;;;2.08;;
10122;SDS011;5101;49.038;8.710;2022-07-29T10:15:34;2.05;;;1.80;;
10122;SDS011;5101;49.038;8.710;2022-07-29T10:18:05;6.10;;;2.33;;
10122;SDS011;5101;49.038;8.710;2022-07-29T10:20:32;6.60;;;2.30;;
10122;SDS011;5101;49.038;8.710;2022-07-29T10:22:58;8.48;;;1.67;;
10122;SDS011;5101;49.038;8.710;2022-07-29T10:25:24;6.78;;;1.70;;
10122;SDS011;5101;49.038;8.710;2022-07-29T10:27:51;3.85;;;1.58;;
10122;SDS011;5101;49.038;8.710;2022-07-29T10:30:18;2.03;;;1.80;;
10122;SDS011;5101;49.038;8.710;2022-07-29T10:32:51;3.20;;;1.63;;
10122;SDS011;5101;49.038;8.710;2022-07-29T10:38:19;4.72;;;2.40;;
10122;SDS011;5101;49.038;8.710;2022-07-29T10:43:56;2.00;;;1.60;;
10122;SDS011;5101;49.038;8.710;2022-07-29T10:46:27;3.88;;;2.00;;
10122;SDS011;5101;49.038;8.710;2022-07-29T10:52:01;3.05;;;2.05;;
10122;SDS011;5101;49.038;8.710;2022-07-29T10:57:30;5.63;;;2.40;;
10122;SDS011;5101;49.038;8.710;2022-07-29T11:05:10;3.22;;;1.92;;
10122;SDS011;5101;49.038;8.710;2022-07-29T11:10:52;4.40;;;1.70;;
10122;SDS011;5101;49.038;8.710;2022-07-29T11:16:11;6.80;;;1.80;;
10122;SDS011;5101;49.038;8.710;2022-07-29T11:21:38;5.75;;;1.67;;
10122;SDS011;5101;49.038;8.710;2022-07-29T11:24:12;3.28;;;1.77;;
10122;SDS011;5101;49.038;8.710;2022-07-29T11:26:39;2.75;;;1.70;;
10122;SDS011;5101;49.038;8.710;2022-07-29T11:29:20;3.28;;;2.00;;
10122;SDS011;5101;49.038;8.710;2022-07-29T11:31:48;3.90;;;1.80;;
10122;SDS011;5101;49.038;8.710;2022-07-29T11:34:20;4.50;;;1.80;;
10122;SDS011;5101;49.038;8.710;2022-07-29T11:39:30;2.45;;;1.80;;
10122;SDS011;5101;49.038;8.710;2022-07-29T11:42:41;3.63;;;1.73;;
10122;SDS011;5101;49.038;8.710;2022-07-29T11:47:39;7.07;;;1.80;;
10122;SDS011;5101;49.038;8.710;2022-07-29T11:50:07;5.28;;;1.65;;
10122;SDS011;5101;49.038;8.710;2022-07-29T11:55:12;1.98;;;1.77;;
10122;SDS011;5101;49.038;8.710;2022-07-29T11:57:55;3.40;;;1.75;;
10122;SDS011;5101;49.038;8.710;2022-07-29T12:00:33;4.85;;;1.80;;
10122;SDS011;5101;49.038;8.710;2022-07-29T12:03:00;5.25;;;2.28;;
10122;SDS011;5101;49.038;8.710;2022-07-29T12:05:45;4.85;;;2.03;;
10122;SDS011;5101;49.038;8.710;2022-07-29T12:10:43;2.08;;;1.80;;
10122;SDS011;5101;49.038;8.710;2022-07-29T12:13:09;3.85;;;1.77;;
10122;SDS011;5101;49.038;8.710;2022-07-29T12:15:35;3.25;;;1.77;;
10122;SDS011;5101;49.038;8.710;2022-07-29T12:18:14;4.32;;;2.08;;
10122;SDS011;5101;49.038;8.710;2022-07-29T12:20:42;2.50;;;1.70;;
10122;SDS011;5101;49.038;8.710;2022-07-29T12:23:09;5.65;;;2.13;;
10122;SDS011;5101;49.038;8.710;2022-07-29T12:25:37;2.88;;;1.92;;
10122;SDS011;5101;49.038;8.710;2022-07-29T12:28:04;5.75;;;2.05;;
10122;SDS011;5101;49.038;8.710;2022-07-29T12:30:39;4.78;;;2.03;;
10122;SDS011;5101;49.038;8.710;2022-07-29T12:33:26;3.78;;;1.80;;
10122;SDS011;5101;49.038;8.710;2022-07-29T12:35:56;3.97;;;1.50;;
10122;SDS011;5101;49.038;8.710;2022-07-29T12:38:23;11.07;;;1.98;;
10122;SDS011;5101;49.038;8.710;2022-07-29T12:40:49;2.78;;;1.67;;
10122;SDS011;5101;49.038;8.710;2022-07-29T12:45:43;3.60;;;1.80;;
10122;SDS011;5101;49.038;8.710;2022-07-29T12:48:11;6.47;;;1.88;;
10122;SDS011;5101;49.038;8.710;2022-07-29T12:50:50;4.72;;;1.83;;
10122;SDS011;5101;49.038;8.710;2022-07-29T12:53:18;3.90;;;1.92;;
10122;SDS011;5101;49.038;8.710;2022-07-29T12:55:44;3.13;;;1.65;;
10122;SDS011;5101;49.038;8.710;2022-07-29T12:58:14;4.22;;;1.85;;
10122;SDS011;5101;49.038;8.710;2022-07-29T13:01:10;4.40;;;1.92;;
10122;SDS011;5101;49.038;8.710;2022-07-29T13:03:51;5.90;;;2.25;;
10122;SDS011;5101;49.038;8.710;2022-07-29T13:06:30;4.53;;;1.77;;
10122;SDS011;5101;49.038;8.710;2022-07-29T13:09:13;4.88;;;1.80;;
10122;SDS011;5101;49.038;8.710;2022-07-29T13:11:43;4.32;;;1.77;;
10122;SDS011;5101;49.038;8.710;2022-07-29T13:14:13;4.20;;;1.90;;
10122;SDS011;5101;49.038;8.710;2022-07-29T13:22:05;5.47;;;1.70;;
10122;SDS011;5101;49.038;8.710;2022-07-29T13:24:30;4.80;;;1.60;;
10122;SDS011;5101;49.038;8.710;2022-07-29T13:26:56;1.90;;;1.65;;
10122;SDS011;5101;49.038;8.710;2022-07-29T13:29:22;4.80;;;1.52;;
10122;SDS011;5101;49.038;8.710;2022-07-29T13:31:48;3.85;;;1.52;;
10122;SDS011;5101;49.038;8.710;2022-07-29T13:34:13;4.97;;;1.70;;
10122;SDS011;5101;49.038;8.710;2022-07-29T13:36:39;2.47;;;1.33;;
10122;SDS011;5101;49.038;8.710;2022-07-29T13:39:04;6.85;;;1.40;;
10122;SDS011;5101;49.038;8.710;2022-07-29T13:41:30;3.10;;;1.38;;
10122;SDS011;5101;49.038;8.710;2022-07-29T13:43:55;2.60;;;1.08;;
10122;SDS011;5101;49.038;8.710;2022-07-29T13:46:21;3.25;;;1.17;;
10122;SDS011;5101;49.038;8.710;2022-07-29T13:48:46;2.35;;;1.30;;
10122;SDS011;5101;49.038;8.710;2022-07-29T13:51:12;3.83;;;1.35;;
10122;SDS011;5101;49.038;8.710;2022-07-29T13:53:38;3.20;;;1.17;;
10122;SDS011;5101;49.038;8.710;2022-07-29T13:56:03;4.10;;;1.25;;
10122;SDS011;5101;49.038;8.710;2022-07-29T13:58:32;2.55;;;1.10;;
10122;SDS011;5101;49.038;8.710;2022-07-29T14:00:58;2.17;;;0.90;;
10122;SDS011;5101;49.038;8.710;2022-07-29T14:03:24;1.50;;;0.88;;
10122;SDS011;5101;49.038;8.710;2022-07-29T14:05:50;6.10;;;1.25;;
10122;SDS011;5101;49.038;8.710;2022-07-29T14:08:15;4.72;;;1.30;;
10122;SDS011;5101;49.038;8.710;2022-07-29T14:10:41;3.08;;;1.17;;
10122;SDS011;5101;49.038;8.710;2022-07-29T14:13:07;7.05;;;0.95;;
10122;SDS011;5101;49.038;8.710;2022-07-29T14:15:32;4.07;;;1.13;;
10122;SDS011;5101;49.038;8.710;2022-07-29T14:17:58;4.45;;;1.15;;
10122;SDS011;5101;49.038;8.710;2022-07-29T14:20:23;4.53;;;1.00;;
10122;SDS011;5101;49.038;8.710;2022-07-29T14:22:49;3.85;;;1.00;;
10122;SDS011;5101;49.038;8.710;2022-07-29T14:25:14;2.95;;;1.20;;
10122;SDS011;5101;49.038;8.710;2022-07-29T14:27:40;2.97;;;1.10;;
10122;SDS011;5101;49.038;8.710;2022-07-29T14:30:05;1.92;;;1.15;;
10122;SDS011;5101;49.038;8.710;2022-07-29T14:32:31;2.58;;;0.93;;
10122;SDS011;5101;49.038;8.710;2022-07-29T14:34:57;4.60;;;1.05;;
10122;SDS011;5101;49.038;8.710;2022-07-29T14:37:22;4.85;;;1.25;;
10122;SDS011;5101;49.038;8.710;2022-07-29T14:39:48;4.43;;;0.98;;
10122;SDS011;5101;49.038;8.710;2022-07-29T14:42:13;2.67;;;1.13;;
10122;SDS011;5101;49.038;8.710;2022-07-29T14:44:39;1.77;;;0.95;;
10122;SDS011;5101;49.038;8.710;2022-07-29T14:47:06;3.28;;;1.10;;
10122;SDS011;5101;49.038;8.710;2022-07-29T14:49:31;8.00;;;1.20;;
10122;SDS011;5101;49.038;8.710;2022-07-29T14:51:57;4.65;;;1.23;;
10122;SDS011;5101;49.038;8.710;2022-07-29T14:54:22;2.20;;;1.00;;
10122;SDS011;5101;49.038;8.710;2022-07-29T14:56:48;2.95;;;0.95;;
10122;SDS011;5101;49.038;8.710;2022-07-29T14:59:15;1.75;;;0.95;;
10122;SDS011;5101;49.038;8.710;2022-07-29T15:01:41;4.03;;;1.00;;
10122;SDS011;5101;49.038;8.710;2022-07-29T15:04:07;3.67;;;1.20;;
10122;SDS011;5101;49.038;8.710;2022-07-29T15:06:33;1.83;;;1.10;;
10122;SDS011;5101;49.038;8.710;2022-07-29T15:08:58;3.35;;;1.13;;
10122;SDS011;5101;49.038;8.710;2022-07-29T15:11:24;2.22;;;1.00;;
10122;SDS011;5101;49.038;8.710;2022-07-29T15:13:50;5.25;;;1.45;;
10122;SDS011;5101;49.038;8.710;2022-07-29T15:16:15;3.00;;;0.98;;
10122;SDS011;5101;49.038;8.710;2022-07-29T15:18:41;2.17;;;1.10;;
10122;SDS011;5101;49.038;8.710;2022-07-29T15:21:06;3.78;;;1.00;;
10122;SDS011;5101;49.038;8.710;2022-07-29T15:23:32;3.72;;;0.95;;
10122;SDS011;5101;49.038;8.710;2022-07-29T15:26:00;2.33;;;1.00;;
10122;SDS011;5101;49.038;8.710;2022-07-29T15:28:27;4.78;;;1.08;;
10122;SDS011;5101;49.038;8.710;2022-07-29T15:30:52;4.53;;;1.10;;
10122;SDS011;5101;49.038;8.710;2022-07-29T15:33:19;6.68;;;1.25;;
10122;SDS011;5101;49.038;8.710;2022-07-29T15:35:44;3.88;;;1.20;;
10122;SDS011;5101;49.038;8.710;2022-07-29T15:38:10;1.23;;;0.98;;
10122;SDS011;5101;49.038;8.710;2022-07-29T15:40:38;2.35;;;1.10;;
10122;SDS011;5101;49.038;8.710;2022-07-29T15:43:08;3.42;;;1.13;;
10122;SDS011;5101;49.038;8.710;2022-07-29T15:45:37;2.45;;;1.00;;
10122;SDS011;5101;49.038;8.710;2022-07-29T15:48:04;3.08;;;1.02;;
10122;SDS011;5101;49.038;8.710;2022-07-29T15:50:31;2.03;;;1.08;;
10122;SDS011;5101;49.038;8.710;2022-07-29T15:52:57;3.42;;;0.95;;
10122;SDS011;5101;49.038;8.710;2022-07-29T15:55:22;2.45;;;1.00;;
10122;SDS011;5101;49.038;8.710;2022-07-29T15:57:48;2.40;;;0.85;;
10122;SDS011;5101;49.038;8.710;2022-07-29T16:00:13;3.15;;;1.00;;
10122;SDS011;5101;49.038;8.710;2022-07-29T16:02:41;2.88;;;1.00;;